Time,TemperatureF,DewpointF,PressureIn,WindDirection,WindDirectionDegrees,WindSpeedMPH,WindSpeedGustMPH,Humidity,HourlyPrecipIn,Conditions,Clouds,dailyrainin,SoftwareType,DateUTC
2013-03-21 00:00:00,9.6,0.8,30.24,NW,316,2.3,0.0,67,0.00,CLR,,0.00,WeatherDisplay:10.37,2013-03-21 05:00:00,
2013-03-21 00:05:00,9.6,0.8,30.24,NW,315,0.0,0.0,67,0.00,CLR,,0.00,WeatherDisplay:10.37,2013-03-21 05:05:00,
2013-03-21 00:10:00,9.5,0.7,30.24,NW,316,0.0,0.0,67,0.00,CLR,,0.00,WeatherDisplay:10.37,2013-03-21 05:10:00,
2013-03-21 00:15:00,9.4,0.6,30.24,NW,316,0.0,0.0,67,0.00,CLR,,0.00,WeatherDisplay:10.37,2013-03-21 05:15:00,
2013-03-21 00:20:00,9.4,0.6,30.24,NW,315,0.0,0.0,67,0.00,CLR,,0.00,WeatherDisplay:10.37,2013-03-21 05:20:00,
2013-03-21 00:25:00,9.4,0.6,30.24,NW,315,0.0,0.0,67,0.00,CLR,,0.00,WeatherDisplay:10.37,2013-03-21 05:25:00,
2013-03-21 00:30:00,9.2,0.5,30.24,NW,316,0.0,0.0,67,0.00,CLR,,0.00,WeatherDisplay:10.37,2013-03-21 05:30:00,
2013-03-21 00:35:00,9.1,0.4,30.24,NW,315,0.0,0.0,67,0.00,CLR,,0.00,WeatherDisplay:10.37,2013-03-21 05:35:00,
2013-03-21 00:40:00,9.0,0.6,30.24,NW,316,0.0,0.0,68,0.00,CLR,,0.00,WeatherDisplay:10.37,2013-03-21 05:40:00,
2013-03-21 00:45:00,8.9,0.5,30.24,NW,316,0.0,0.0,68,0.00,CLR,,0.00,WeatherDisplay:10.37,2013-03-21 05:45:00,
2013-03-21 00:50:00,8.9,0.5,30.23,NW,311,5.8,5.8,68,0.00,CLR,,0.00,WeatherDisplay:10.37,2013-03-21 05:50:00,
2013-03-21 00:55:00,9.0,0.6,30.23,NW,323,0.0,0.0,68,0.00,CLR,,0.00,WeatherDisplay:10.37,2013-03-21 05:55:00,
2013-03-21 01:00:00,9.0,0.6,30.23,NW,323,0.0,0.0,68,0.00,CLR,,0.00,WeatherDisplay:10.37,2013-03-21 06:00:00,
2013-03-21 01:05:00,8.9,0.5,30.23,NW,323,0.0,0.0,68,0.00,CLR,,0.00,WeatherDisplay:10.37,2013-03-21 06:05:00,
2013-03-21 01:10:00,8.8,0.1,30.23,NW,323,0.0,0.0,67,0.00,CLR,,0.00,WeatherDisplay:10.37,2013-03-21 06:10:00,
2013-03-21 01:15:00,8.8,0.4,30.23,NW,323,0.0,0.0,68,0.00,CLR,,0.00,WeatherDisplay:10.37,2013-03-21 06:15:00,
2013-03-21 01:20:00,8.7,0.3,30.23,NW,323,0.0,0.0,68,0.00,CLR,,0.00,WeatherDisplay:10.37,2013-03-21 06:20:00,
2013-03-21 01:25:00,8.6,0.2,30.23,NW,323,0.0,0.0,68,0.00,CLR,,0.00,WeatherDisplay:10.37,2013-03-21 06:25:00,
2013-03-21 01:30:00,8.5,0.1,30.23,NW,323,0.0,0.0,68,0.00,CLR,,0.00,WeatherDisplay:10.37,2013-03-21 06:30:00,
2013-03-21 01:35:00,8.3,-0.1,30.23,NW,323,0.0,0.0,68,0.00,CLR,,0.00,WeatherDisplay:10.37,2013-03-21 06:35:00,
2013-03-21 01:40:00,8.3,0.2,30.22,NW,323,0.0,0.0,69,0.00,CLR,,0.00,WeatherDisplay:10.37,2013-03-21 06:40:00,
2013-03-21 01:45:00,8.1,0.0,30.22,NW,323,0.0,0.0,69,0.00,CLR,,0.00,WeatherDisplay:10.37,2013-03-21 06:45:00,
2013-03-21 01:50:00,8.1,0.0,30.22,NW,323,0.0,0.0,69,0.00,CLR,,0.00,WeatherDisplay:10.37,2013-03-21 06:50:00,
2013-03-21 01:55:00,8.0,0.2,30.22,NW,323,0.0,0.0,70,0.00,CLR,,0.00,WeatherDisplay:10.37,2013-03-21 06:55:00,
2013-03-21 02:00:00,8.0,0.2,30.22,NW,323,0.0,0.0,70,0.00,CLR,,0.00,WeatherDisplay:10.37,2013-03-21 07:00:00,
2013-03-21 02:05:00,8.1,0.6,30.22,NW,323,0.0,0.0,71,0.00,CLR,,0.00,WeatherDisplay:10.37,2013-03-21 07:05:00,
2013-03-21 02:11:00,8.1,0.3,30.22,NW,323,0.0,0.0,70,0.00,CLR,,0.00,WeatherDisplay:10.37,2013-03-21 07:11:00,
2013-03-21 02:16:00,7.9,0.1,30.22,NW,323,0.0,0.0,70,0.00,CLR,,0.00,WeatherDisplay:10.37,2013-03-21 07:16:00,
2013-03-21 02:21:00,7.6,-0.1,30.22,NW,323,0.0,0.0,70,0.00,CLR,,0.00,WeatherDisplay:10.37,2013-03-21 07:21:00,
2013-03-21 02:26:00,7.4,-0.3,30.22,NW,323,0.0,0.0,70,0.00,CLR,,0.00,WeatherDisplay:10.37,2013-03-21 07:26:00,
2013-03-21 02:31:00,7.4,0.0,30.22,NW,323,0.0,0.0,71,0.00,CLR,,0.00,WeatherDisplay:10.37,2013-03-21 07:31:00,
2013-03-21 02:36:00,7.4,0.0,30.22,NW,323,0.0,0.0,71,0.00,CLR,,0.00,WeatherDisplay:10.37,2013-03-21 07:36:00,
2013-03-21 02:41:00,7.2,-0.2,30.22,NW,323,0.0,0.0,71,0.00,CLR,,0.00,WeatherDisplay:10.37,2013-03-21 07:41:00,
2013-03-21 02:46:00,7.1,-0.3,30.22,NW,323,0.0,0.0,71,0.00,CLR,,0.00,WeatherDisplay:10.37,2013-03-21 07:46:00,
2013-03-21 02:51:00,7.0,-0.4,30.22,NW,323,0.0,0.0,71,0.00,CLR,,0.00,WeatherDisplay:10.37,2013-03-21 07:51:00,
2013-03-21 02:56:00,7.0,-0.4,30.22,NW,323,0.0,0.0,71,0.00,CLR,,0.00,WeatherDisplay:10.37,2013-03-21 07:56:00,
2013-03-21 03:01:00,7.1,-0.6,30.22,NW,323,0.0,0.0,70,0.00,CLR,,0.00,WeatherDisplay:10.37,2013-03-21 08:01:00,
2013-03-21 03:06:00,7.0,-0.7,30.22,NW,323,0.0,0.0,70,0.00,CLR,,0.00,WeatherDisplay:10.37,2013-03-21 08:06:00,
2013-03-21 03:11:00,6.9,-0.8,30.21,NW,323,0.0,0.0,70,0.00,CLR,,0.00,WeatherDisplay:10.37,2013-03-21 08:11:00,
2013-03-21 03:16:00,6.8,-0.9,30.22,NW,323,0.0,0.0,70,0.00,CLR,,0.00,WeatherDisplay:10.37,2013-03-21 08:16:00,
2013-03-21 03:21:00,6.7,-0.7,30.21,NW,323,0.0,0.0,71,0.00,CLR,,0.00,WeatherDisplay:10.37,2013-03-21 08:21:00,
2013-03-21 03:26:00,6.6,-0.8,30.21,NW,323,0.0,0.0,71,0.00,CLR,,0.00,WeatherDisplay:10.37,2013-03-21 08:26:00,
2013-03-21 03:31:00,6.5,-0.9,30.21,NW,323,0.0,0.0,71,0.00,CLR,,0.00,WeatherDisplay:10.37,2013-03-21 08:31:00,
2013-03-21 03:36:00,6.4,-1.0,30.21,NW,323,0.0,0.0,71,0.00,CLR,,0.00,WeatherDisplay:10.37,2013-03-21 08:36:00,
2013-03-21 03:41:00,6.2,-1.2,30.21,NW,323,0.0,0.0,71,0.00,CLR,,0.00,WeatherDisplay:10.37,2013-03-21 08:41:00,
2013-03-21 03:46:00,6.2,-0.9,30.21,NW,323,0.0,0.0,72,0.00,CLR,,0.00,WeatherDisplay:10.37,2013-03-21 08:46:00,
2013-03-21 03:51:00,6.1,-1.0,30.21,NW,323,0.0,0.0,72,0.00,CLR,,0.00,WeatherDisplay:10.37,2013-03-21 08:51:00,
2013-03-21 03:57:00,6.2,-0.6,30.21,NW,323,0.0,0.0,73,0.00,CLR,,0.00,WeatherDisplay:10.37,2013-03-21 08:57:00,
2013-03-21 04:02:00,6.2,-0.9,30.21,NW,323,0.0,0.0,72,0.00,CLR,,0.00,WeatherDisplay:10.37,2013-03-21 09:02:00,
2013-03-21 04:07:00,6.1,-1.0,30.21,NW,323,0.0,0.0,72,0.00,CLR,,0.00,WeatherDisplay:10.37,2013-03-21 09:07:00,
2013-03-21 04:12:00,6.1,-0.7,30.21,NW,323,0.0,0.0,73,0.00,CLR,,0.00,WeatherDisplay:10.37,2013-03-21 09:12:00,
2013-03-21 04:17:00,6.3,-0.2,30.21,NW,323,0.0,0.0,74,0.00,CLR,,0.00,WeatherDisplay:10.37,2013-03-21 09:17:00,
2013-03-21 04:22:00,6.2,-0.3,30.21,NW,323,0.0,0.0,74,0.00,CLR,,0.00,WeatherDisplay:10.37,2013-03-21 09:22:00,
2013-03-21 04:27:00,6.0,-0.8,30.21,NW,323,0.0,0.0,73,0.00,CLR,,0.00,WeatherDisplay:10.37,2013-03-21 09:27:00,
2013-03-21 04:32:00,5.8,-1.0,30.21,NW,323,0.0,0.0,73,0.00,CLR,,0.00,WeatherDisplay:10.37,2013-03-21 09:32:00,
2013-03-21 04:37:00,5.7,-1.1,30.20,NW,323,0.0,0.0,73,0.00,CLR,,0.00,WeatherDisplay:10.37,2013-03-21 09:37:00,
2013-03-21 04:42:00,5.6,-1.2,30.20,NW,323,0.0,0.0,73,0.00,CLR,,0.00,WeatherDisplay:10.37,2013-03-21 09:42:00,
2013-03-21 04:47:00,5.5,-1.3,30.21,NW,323,0.0,0.0,73,0.00,CLR,,0.00,WeatherDisplay:10.37,2013-03-21 09:47:00,
2013-03-21 04:52:00,5.4,-1.4,30.20,NW,323,0.0,0.0,73,0.00,CLR,,0.00,WeatherDisplay:10.37,2013-03-21 09:52:00,
2013-03-21 04:57:00,5.4,-1.1,30.20,NW,323,0.0,0.0,74,0.00,CLR,,0.00,WeatherDisplay:10.37,2013-03-21 09:57:00,
2013-03-21 05:02:00,5.3,-1.2,30.20,NW,323,0.0,0.0,74,0.00,CLR,,0.00,WeatherDisplay:10.37,2013-03-21 10:02:00,
2013-03-21 05:07:00,5.2,-1.3,30.20,NW,323,0.0,0.0,74,0.00,CLR,,0.00,WeatherDisplay:10.37,2013-03-21 10:07:00,
2013-03-21 05:12:00,5.3,-1.2,30.20,NW,323,0.0,0.0,74,0.00,CLR,,0.00,WeatherDisplay:10.37,2013-03-21 10:12:00,
2013-03-21 05:17:00,5.4,-1.1,30.20,NW,323,0.0,0.0,74,0.00,CLR,,0.00,WeatherDisplay:10.37,2013-03-21 10:17:00,
2013-03-21 05:22:00,5.3,-1.2,30.20,NW,323,0.0,0.0,74,0.00,CLR,,0.00,WeatherDisplay:10.37,2013-03-21 10:22:00,
2013-03-21 05:27:00,5.2,-1.3,30.20,NW,323,0.0,0.0,74,0.00,CLR,,0.00,WeatherDisplay:10.37,2013-03-21 10:27:00,
2013-03-21 05:32:00,5.8,0.1,30.20,NW,323,0.0,0.0,77,0.00,CLR,,0.00,WeatherDisplay:10.37,2013-03-21 10:32:00,
2013-03-21 05:37:00,6.1,0.7,30.20,NW,323,0.0,0.0,78,0.00,CLR,,0.00,WeatherDisplay:10.37,2013-03-21 10:37:00,
2013-03-21 05:42:00,6.0,0.6,30.20,NW,323,0.0,0.0,78,0.00,CLR,,0.00,WeatherDisplay:10.37,2013-03-21 10:42:00,
2013-03-21 05:47:00,5.5,-0.1,30.21,NW,323,0.0,0.0,77,0.00,CLR,,0.00,WeatherDisplay:10.37,2013-03-21 10:47:00,
2013-03-21 05:52:00,5.1,-0.5,30.20,NW,323,0.0,0.0,77,0.00,CLR,,0.00,WeatherDisplay:10.37,2013-03-21 10:52:00,
2013-03-21 05:57:00,4.9,-0.7,30.20,NW,323,0.0,0.0,77,0.00,CLR,,0.00,WeatherDisplay:10.37,2013-03-21 10:57:00,
2013-03-21 06:02:00,5.1,0.0,30.20,NW,323,0.0,0.0,79,0.00,CLR,,0.00,WeatherDisplay:10.37,2013-03-21 11:02:00,
2013-03-21 06:07:00,5.8,1.0,30.20,NW,323,0.0,0.0,80,0.00,CLR,,0.00,WeatherDisplay:10.37,2013-03-21 11:07:00,
2013-03-21 06:12:00,5.9,1.1,30.20,NW,323,0.0,0.0,80,0.00,CLR,,0.00,WeatherDisplay:10.37,2013-03-21 11:12:00,
2013-03-21 06:17:00,5.4,0.3,30.20,NW,323,0.0,0.0,79,0.00,CLR,,0.00,WeatherDisplay:10.37,2013-03-21 11:17:00,
2013-03-21 06:22:00,5.0,-0.4,30.20,NW,323,0.0,0.0,78,0.00,CLR,,0.00,WeatherDisplay:10.37,2013-03-21 11:22:00,
2013-03-21 06:27:00,4.4,-1.2,30.20,NW,323,0.0,0.0,77,0.00,CLR,,0.00,WeatherDisplay:10.37,2013-03-21 11:27:00,
2013-03-21 06:32:00,4.0,-1.6,30.20,NW,323,0.0,0.0,77,0.00,CLR,,0.00,WeatherDisplay:10.37,2013-03-21 11:32:00,
2013-03-21 06:37:00,3.8,-1.8,30.20,NW,323,0.0,0.0,77,0.00,CLR,,0.00,WeatherDisplay:10.37,2013-03-21 11:37:00,
2013-03-21 06:42:00,3.8,-1.5,30.20,NW,323,0.0,0.0,78,0.00,CLR,,0.00,WeatherDisplay:10.37,2013-03-21 11:42:00,
2013-03-21 06:47:00,4.2,-0.9,30.20,NW,323,0.0,0.0,79,0.00,CLR,,0.00,WeatherDisplay:10.37,2013-03-21 11:47:00,
2013-03-21 06:52:00,4.1,-1.0,30.21,NW,323,0.0,0.0,79,0.00,CLR,,0.00,WeatherDisplay:10.37,2013-03-21 11:52:00,
2013-03-21 06:57:00,3.9,-1.4,30.20,NW,323,0.0,0.0,78,0.00,CLR,,0.00,WeatherDisplay:10.37,2013-03-21 11:57:00,
2013-03-21 07:03:00,3.6,-1.7,30.20,NW,323,0.0,0.0,78,0.00,CLR,,0.00,WeatherDisplay:10.37,2013-03-21 12:03:00,
2013-03-21 07:08:00,3.3,-2.0,30.21,NW,323,0.0,0.0,78,0.00,CLR,,0.00,WeatherDisplay:10.37,2013-03-21 12:08:00,
2013-03-21 07:13:00,3.2,-2.1,30.20,NW,323,0.0,0.0,78,0.00,CLR,,0.00,WeatherDisplay:10.37,2013-03-21 12:13:00,
2013-03-21 07:18:00,3.9,-0.9,30.20,NW,323,0.0,0.0,80,0.00,CLR,,0.00,WeatherDisplay:10.37,2013-03-21 12:18:00,
2013-03-21 07:23:00,4.4,-0.1,30.21,NW,323,0.0,0.0,81,0.00,CLR,,0.00,WeatherDisplay:10.37,2013-03-21 12:23:00,
2013-03-21 07:28:00,4.4,-0.4,30.21,NW,323,0.0,0.0,80,0.00,CLR,,0.00,WeatherDisplay:10.37,2013-03-21 12:28:00,
2013-03-21 07:33:00,4.5,-0.3,30.21,NW,323,0.0,0.0,80,0.00,CLR,,0.00,WeatherDisplay:10.37,2013-03-21 12:33:00,
2013-03-21 07:38:00,5.2,0.9,30.21,NW,323,0.0,0.0,82,0.00,CLR,,0.00,WeatherDisplay:10.37,2013-03-21 12:38:00,
2013-03-21 07:43:00,5.5,0.9,30.21,NW,323,0.0,0.0,81,0.00,CLR,,0.00,WeatherDisplay:10.37,2013-03-21 12:43:00,
2013-03-21 07:48:00,5.7,1.1,30.21,NW,323,0.0,0.0,81,0.00,CLR,,0.00,WeatherDisplay:10.37,2013-03-21 12:48:00,
2013-03-21 07:53:00,5.7,0.9,30.21,NW,323,0.0,0.0,80,0.00,CLR,,0.00,WeatherDisplay:10.37,2013-03-21 12:53:00,
2013-03-21 07:58:00,5.9,1.3,30.21,NW,323,0.0,0.0,81,0.00,CLR,,0.00,WeatherDisplay:10.37,2013-03-21 12:58:00,
2013-03-21 08:03:00,6.4,1.8,30.22,NW,323,0.0,0.0,81,0.00,CLR,,0.00,WeatherDisplay:10.37,2013-03-21 13:03:00,
2013-03-21 08:08:00,6.5,1.4,30.21,NW,323,0.0,0.0,79,0.00,CLR,,0.00,WeatherDisplay:10.37,2013-03-21 13:08:00,
2013-03-21 08:13:00,6.2,0.8,30.22,NW,323,0.0,0.0,78,0.00,CLR,,0.00,WeatherDisplay:10.37,2013-03-21 13:13:00,
2013-03-21 08:18:00,6.1,0.4,30.22,NW,323,0.0,0.0,77,0.00,CLR,,0.00,WeatherDisplay:10.37,2013-03-21 13:18:00,
2013-03-21 08:23:00,6.3,0.9,30.22,NW,323,0.0,0.0,78,0.00,CLR,,0.00,WeatherDisplay:10.37,2013-03-21 13:23:00,
2013-03-21 08:28:00,6.5,0.8,30.21,NW,323,0.0,0.0,77,0.00,CLR,,0.00,WeatherDisplay:10.37,2013-03-21 13:28:00,
2013-03-21 08:33:00,6.8,1.1,30.22,NW,323,0.0,0.0,77,0.00,CLR,,0.00,WeatherDisplay:10.37,2013-03-21 13:33:00,
2013-03-21 08:39:00,7.0,0.7,30.22,NW,323,0.0,0.0,75,0.00,CLR,,0.00,WeatherDisplay:10.37,2013-03-21 13:39:00,
2013-03-21 08:44:00,7.3,1.0,30.22,NW,323,0.0,0.0,75,0.00,CLR,,0.00,WeatherDisplay:10.37,2013-03-21 13:44:00,
2013-03-21 08:49:00,7.7,1.1,30.22,NW,323,0.0,0.0,74,0.00,CLR,,0.00,WeatherDisplay:10.37,2013-03-21 13:49:00,
2013-03-21 08:54:00,8.0,1.7,30.22,NW,323,0.0,0.0,75,0.00,CLR,,0.00,WeatherDisplay:10.37,2013-03-21 13:54:00,
2013-03-21 08:59:00,8.2,1.3,30.22,NW,323,0.0,0.0,73,0.00,CLR,,0.00,WeatherDisplay:10.37,2013-03-21 13:59:00,
2013-03-21 09:04:00,8.2,1.0,30.22,NW,323,0.0,0.0,72,0.00,CLR,,0.00,WeatherDisplay:10.37,2013-03-21 14:04:00,
2013-03-21 09:09:00,8.6,1.4,30.22,NW,323,0.0,0.0,72,0.00,CLR,,0.00,WeatherDisplay:10.37,2013-03-21 14:09:00,
2013-03-21 09:14:00,9.0,1.8,30.22,NW,323,0.0,0.0,72,0.00,CLR,,0.00,WeatherDisplay:10.37,2013-03-21 14:14:00,
2013-03-21 09:19:00,9.5,2.3,30.22,NW,323,0.0,0.0,72,0.00,CLR,,0.00,WeatherDisplay:10.37,2013-03-21 14:19:00,
2013-03-21 09:24:00,10.1,2.6,30.22,NW,323,0.0,0.0,71,0.00,CLR,,0.00,WeatherDisplay:10.37,2013-03-21 14:24:00,
2013-03-21 09:29:00,11.0,3.1,30.21,NW,323,0.0,0.0,70,0.00,CLR,,0.00,WeatherDisplay:10.37,2013-03-21 14:29:00,
2013-03-21 09:34:00,11.8,3.3,30.21,NW,323,0.0,0.0,68,0.00,CLR,,0.00,WeatherDisplay:10.37,2013-03-21 14:34:00,
2013-03-21 09:39:00,12.5,3.9,30.21,NW,323,0.0,0.0,68,0.00,CLR,,0.00,WeatherDisplay:10.37,2013-03-21 14:39:00,
2013-03-21 09:44:00,13.2,4.0,30.21,NW,323,0.0,0.0,66,0.00,CLR,,0.00,WeatherDisplay:10.37,2013-03-21 14:44:00,
2013-03-21 09:49:00,13.9,4.6,30.21,NW,323,0.0,0.0,66,0.00,CLR,,0.00,WeatherDisplay:10.37,2013-03-21 14:49:00,
2013-03-21 09:54:00,14.8,5.2,30.21,NW,323,0.0,0.0,65,0.00,CLR,,0.00,WeatherDisplay:10.37,2013-03-21 14:54:00,
2013-03-21 09:59:00,15.5,5.8,30.21,NW,323,0.0,0.0,65,0.00,CLR,,0.00,WeatherDisplay:10.37,2013-03-21 14:59:00,
2013-03-21 10:04:00,15.6,4.9,30.21,NW,323,0.0,0.0,62,0.00,CLR,,0.00,WeatherDisplay:10.37,2013-03-21 15:04:00,
2013-03-21 10:09:00,15.7,5.7,30.21,NW,323,0.0,0.0,64,0.00,CLR,,0.00,WeatherDisplay:10.37,2013-03-21 15:09:00,
2013-03-21 10:14:00,15.6,4.2,30.21,NW,323,0.0,0.0,60,0.00,CLR,,0.00,WeatherDisplay:10.37,2013-03-21 15:14:00,
2013-03-21 10:19:00,15.2,4.5,30.21,NW,323,0.0,0.0,62,0.00,CLR,,0.00,WeatherDisplay:10.37,2013-03-21 15:19:00,
2013-03-21 10:24:00,15.9,5.5,30.21,NW,323,0.0,0.0,63,0.00,CLR,,0.00,WeatherDisplay:10.37,2013-03-21 15:24:00,
2013-03-21 10:29:00,17.5,6.3,30.21,NW,323,0.0,0.0,61,0.00,CLR,,0.00,WeatherDisplay:10.37,2013-03-21 15:29:00,
2013-03-21 10:34:00,17.9,5.6,30.21,NW,323,0.0,0.0,58,0.00,CLR,,0.00,WeatherDisplay:10.37,2013-03-21 15:34:00,
2013-03-21 10:39:00,18.5,6.2,30.20,NW,323,0.0,0.0,58,0.00,CLR,,0.00,WeatherDisplay:10.37,2013-03-21 15:39:00,
2013-03-21 10:44:00,18.8,6.1,30.21,NW,323,0.0,0.0,57,0.00,CLR,,0.00,WeatherDisplay:10.37,2013-03-21 15:44:00,
2013-03-21 10:49:00,19.7,6.9,30.20,NW,323,0.0,0.0,57,0.00,CLR,,0.00,WeatherDisplay:10.37,2013-03-21 15:49:00,
2013-03-21 10:54:00,20.3,7.9,30.20,NW,323,0.0,0.0,58,0.00,CLR,,0.00,WeatherDisplay:10.37,2013-03-21 15:54:00,
2013-03-21 10:59:00,20.0,6.4,30.20,NW,323,0.0,0.0,55,0.00,CLR,,0.00,WeatherDisplay:10.37,2013-03-21 15:59:00,
2013-03-21 11:04:00,19.7,6.5,30.20,NW,323,0.0,0.0,56,0.00,CLR,,0.00,WeatherDisplay:10.37,2013-03-21 16:04:00,
2013-03-21 11:09:00,19.7,6.1,30.20,NW,323,0.0,0.0,55,0.00,CLR,,0.00,WeatherDisplay:10.37,2013-03-21 16:09:00,
2013-03-21 11:14:00,19.4,6.2,30.20,NW,323,0.0,0.0,56,0.00,CLR,,0.00,WeatherDisplay:10.37,2013-03-21 16:14:00,
2013-03-21 11:19:00,19.1,5.6,30.20,NW,323,0.0,0.0,55,0.00,CLR,,0.00,WeatherDisplay:10.37,2013-03-21 16:19:00,
2013-03-21 11:24:00,19.1,5.6,30.19,NW,323,0.0,0.0,55,0.00,CLR,,0.00,WeatherDisplay:10.37,2013-03-21 16:24:00,
2013-03-21 11:29:00,18.8,5.7,30.20,NW,323,0.0,0.0,56,0.00,CLR,,0.00,WeatherDisplay:10.37,2013-03-21 16:29:00,
2013-03-21 11:34:00,19.1,5.6,30.19,NW,323,0.0,0.0,55,0.00,CLR,,0.00,WeatherDisplay:10.37,2013-03-21 16:34:00,
2013-03-21 11:39:00,19.3,6.1,30.19,NW,323,0.0,0.0,56,0.00,CLR,,0.00,WeatherDisplay:10.37,2013-03-21 16:39:00,
2013-03-21 11:44:00,19.7,6.1,30.19,NW,323,0.0,0.0,55,0.00,CLR,,0.00,WeatherDisplay:10.37,2013-03-21 16:44:00,
2013-03-21 11:49:00,20.0,6.4,30.19,NW,323,0.0,0.0,55,0.00,CLR,,0.00,WeatherDisplay:10.37,2013-03-21 16:49:00,
2013-03-21 11:54:00,20.3,6.7,30.19,NW,323,0.0,0.0,55,0.00,CLR,,0.00,WeatherDisplay:10.37,2013-03-21 16:54:00,
2013-03-21 11:59:00,20.7,6.7,30.19,NW,317,0.0,0.5,54,0.00,CLR,,0.00,WeatherDisplay:10.37,2013-03-21 16:59:00,
2013-03-21 12:04:00,21.0,6.5,30.19,West,266,3.5,3.5,53,0.00,CLR,,0.00,WeatherDisplay:10.37,2013-03-21 17:04:00,
2013-03-21 12:09:00,21.7,6.8,30.19,NW,304,5.8,5.8,52,0.00,CLR,,0.00,WeatherDisplay:10.37,2013-03-21 17:09:00,
2013-03-21 12:14:00,20.9,6.0,30.19,WNW,294,3.5,3.5,52,0.00,CLR,,0.00,WeatherDisplay:10.37,2013-03-21 17:14:00,
2013-03-21 12:19:00,20.9,6.4,30.19,West,275,2.3,2.3,53,0.00,CLR,,0.00,WeatherDisplay:10.37,2013-03-21 17:19:00,
2013-03-21 12:24:00,21.8,7.3,30.19,WSW,256,3.5,3.5,53,0.00,CLR,,0.00,WeatherDisplay:10.37,2013-03-21 17:24:00,
2013-03-21 12:29:00,21.5,6.6,30.19,West,268,3.5,3.5,52,0.00,CLR,,0.00,WeatherDisplay:10.37,2013-03-21 17:29:00,
2013-03-21 12:34:00,21.0,6.1,30.19,NW,304,2.3,2.3,52,0.00,CLR,,0.00,WeatherDisplay:10.37,2013-03-21 17:34:00,
2013-03-21 12:39:00,20.6,6.2,30.19,West,272,5.8,5.8,53,0.00,CLR,,0.00,WeatherDisplay:10.37,2013-03-21 17:39:00,
2013-03-21 12:44:00,20.9,6.8,30.19,WNW,288,3.5,3.5,54,0.00,CLR,,0.00,WeatherDisplay:10.37,2013-03-21 17:44:00,
2013-03-21 12:49:00,21.8,7.3,30.18,NW,304,3.5,3.5,53,0.00,CLR,,0.00,WeatherDisplay:10.37,2013-03-21 17:49:00,
2013-03-21 12:54:00,21.8,6.8,30.18,West,280,4.6,4.6,52,0.00,CLR,,0.00,WeatherDisplay:10.37,2013-03-21 17:54:00,
2013-03-21 12:59:00,21.6,6.7,30.18,WSW,257,2.3,2.3,52,0.00,CLR,,0.00,WeatherDisplay:10.37,2013-03-21 17:59:00,
2013-03-21 13:04:00,22.0,7.5,30.18,WSW,250,0.0,0.2,53,0.00,CLR,,0.00,WeatherDisplay:10.37,2013-03-21 18:04:00,
2013-03-21 13:09:00,22.5,7.5,30.18,NW,309,1.2,0.0,52,0.00,CLR,,0.00,WeatherDisplay:10.37,2013-03-21 18:09:00,
2013-03-21 13:14:00,23.4,8.8,30.18,WNW,295,0.0,0.0,53,0.00,CLR,,0.00,WeatherDisplay:10.37,2013-03-21 18:14:00,
2013-03-21 13:19:00,23.5,7.6,30.18,West,265,3.0,3.0,50,0.00,CLR,,0.00,WeatherDisplay:10.37,2013-03-21 18:19:00,
2013-03-21 13:24:00,23.7,7.7,30.18,SW,236,6.9,6.9,50,0.00,CLR,,0.00,WeatherDisplay:10.37,2013-03-21 18:24:00,
2013-03-21 13:29:00,24.6,8.1,30.18,WSW,246,1.2,0.0,49,0.00,CLR,,0.00,WeatherDisplay:10.37,2013-03-21 18:29:00,
2013-03-21 13:34:00,24.3,7.4,30.18,WNW,303,3.5,0.0,48,0.00,CLR,,0.00,WeatherDisplay:10.37,2013-03-21 18:34:00,
2013-03-21 13:39:00,23.9,7.9,30.18,NW,309,3.5,3.5,50,0.00,CLR,,0.00,WeatherDisplay:10.37,2013-03-21 18:39:00,
2013-03-21 13:45:00,23.6,8.1,30.18,NW,310,0.0,0.0,51,0.00,CLR,,0.00,WeatherDisplay:10.37,2013-03-21 18:45:00,
2013-03-21 13:50:00,23.7,7.7,30.17,WNW,298,2.3,2.3,50,0.00,CLR,,0.00,WeatherDisplay:10.37,2013-03-21 18:50:00,
2013-03-21 13:55:00,22.9,7.0,30.17,NW,319,4.6,4.6,50,0.00,CLR,,0.00,WeatherDisplay:10.37,2013-03-21 18:55:00,
2013-03-21 14:00:00,23.0,8.4,30.17,NNW,330,1.0,1.0,53,0.00,CLR,,0.00,WeatherDisplay:10.37,2013-03-21 19:00:00,
2013-03-21 14:05:00,23.4,8.3,30.17,NW,304,3.5,3.5,52,0.00,CLR,,0.00,WeatherDisplay:10.37,2013-03-21 19:05:00,
2013-03-21 14:10:00,24.4,8.8,30.17,WNW,297,2.3,2.3,51,0.00,CLR,,0.00,WeatherDisplay:10.37,2013-03-21 19:10:00,
2013-03-21 14:15:00,24.5,8.5,30.17,WSW,257,3.5,3.5,50,0.00,CLR,,0.00,WeatherDisplay:10.37,2013-03-21 19:15:00,
2013-03-21 14:20:00,25.1,9.0,30.17,WSW,250,3.5,3.5,50,0.00,CLR,,0.00,WeatherDisplay:10.37,2013-03-21 19:20:00,
2013-03-21 14:25:00,25.4,9.3,30.16,WSW,245,0.0,0.0,50,0.00,CLR,,0.00,WeatherDisplay:10.37,2013-03-21 19:25:00,
2013-03-21 14:30:00,26.8,9.2,30.16,SW,229,9.2,9.2,47,0.00,CLR,,0.00,WeatherDisplay:10.37,2013-03-21 19:30:00,
2013-03-21 14:35:00,26.0,8.5,30.16,NW,317,6.9,6.9,47,0.00,CLR,,0.00,WeatherDisplay:10.37,2013-03-21 19:35:00,
2013-03-21 14:40:00,24.1,7.7,30.16,WNW,288,5.8,5.8,49,0.00,CLR,,0.00,WeatherDisplay:10.37,2013-03-21 19:40:00,
2013-03-21 14:45:00,23.8,8.3,30.16,WNW,287,3.5,3.5,51,0.00,CLR,,0.00,WeatherDisplay:10.37,2013-03-21 19:45:00,
2013-03-21 14:50:00,23.5,8.0,30.16,NW,306,5.8,5.8,51,0.00,CLR,,0.00,WeatherDisplay:10.37,2013-03-21 19:50:00,
2013-03-21 14:55:00,23.9,8.4,30.15,WNW,294,0.0,0.0,51,0.00,CLR,,0.00,WeatherDisplay:10.37,2013-03-21 19:55:00,
2013-03-21 15:00:00,24.5,8.9,30.15,West,276,3.5,0.0,51,0.00,CLR,,0.00,WeatherDisplay:10.37,2013-03-21 20:00:00,
2013-03-21 15:05:00,25.1,9.5,30.15,North,350,3.5,3.5,51,0.00,CLR,,0.00,WeatherDisplay:10.37,2013-03-21 20:05:00,
2013-03-21 15:10:00,25.2,9.1,30.15,NNW,338,3.5,3.5,50,0.00,CLR,,0.00,WeatherDisplay:10.37,2013-03-21 20:10:00,
2013-03-21 15:15:00,24.9,8.4,30.15,NW,317,3.5,3.5,49,0.00,CLR,,0.00,WeatherDisplay:10.37,2013-03-21 20:15:00,
2013-03-21 15:20:00,24.5,7.6,30.15,East,91,0.0,0.0,48,0.00,CLR,,0.00,WeatherDisplay:10.37,2013-03-21 20:20:00,
2013-03-21 15:25:00,25.3,9.2,30.15,WNW,302,4.6,4.6,50,0.00,CLR,,0.00,WeatherDisplay:10.37,2013-03-21 20:25:00,
2013-03-21 15:30:00,25.3,8.8,30.15,NW,319,1.2,0.0,49,0.00,CLR,,0.00,WeatherDisplay:10.37,2013-03-21 20:30:00,
2013-03-21 15:35:00,25.3,8.8,30.15,WNW,302,4.6,4.6,49,0.00,CLR,,0.00,WeatherDisplay:10.37,2013-03-21 20:35:00,
2013-03-21 15:40:00,25.2,8.7,30.15,WNW,302,3.5,3.5,49,0.00,CLR,,0.00,WeatherDisplay:10.37,2013-03-21 20:40:00,
2013-03-21 15:45:00,24.9,8.9,30.15,NW,315,3.5,3.5,50,0.00,CLR,,0.00,WeatherDisplay:10.37,2013-03-21 20:45:00,
2013-03-21 15:50:00,25.4,9.8,30.15,NNE,12,2.3,2.3,51,0.00,CLR,,0.00,WeatherDisplay:10.37,2013-03-21 20:50:00,
2013-03-21 15:55:00,25.6,9.1,30.15,North,11,0.0,0.0,49,0.00,CLR,,0.00,WeatherDisplay:10.37,2013-03-21 20:55:00,
2013-03-21 16:00:00,25.7,9.6,30.14,NNW,335,3.5,3.5,50,0.00,CLR,,0.00,WeatherDisplay:10.37,2013-03-21 21:00:00,
2013-03-21 16:05:00,25.7,8.7,30.14,NNW,343,0.0,0.0,48,0.00,CLR,,0.00,WeatherDisplay:10.37,2013-03-21 21:05:00,
2013-03-21 16:10:00,25.6,8.6,30.14,NNW,327,3.5,3.5,48,0.00,CLR,,0.00,WeatherDisplay:10.37,2013-03-21 21:10:00,
2013-03-21 16:15:00,25.3,8.3,30.14,NNW,327,3.5,3.5,48,0.00,CLR,,0.00,WeatherDisplay:10.37,2013-03-21 21:15:00,
2013-03-21 16:20:00,25.5,9.0,30.14,WNW,302,4.6,4.6,49,0.00,CLR,,0.00,WeatherDisplay:10.37,2013-03-21 21:20:00,
2013-03-21 16:25:00,25.8,9.2,30.14,NNW,327,5.8,5.8,49,0.00,CLR,,0.00,WeatherDisplay:10.37,2013-03-21 21:25:00,
2013-03-21 16:30:00,26.1,9.1,30.14,NNW,327,3.5,3.5,48,0.00,CLR,,0.00,WeatherDisplay:10.37,2013-03-21 21:30:00,
2013-03-21 16:35:00,26.3,9.2,30.14,NNW,346,3.5,3.5,48,0.00,CLR,,0.00,WeatherDisplay:10.37,2013-03-21 21:35:00,
2013-03-21 16:40:00,25.9,9.3,30.14,NNW,341,3.5,3.5,49,0.00,CLR,,0.00,WeatherDisplay:10.37,2013-03-21 21:40:00,
2013-03-21 16:45:00,25.5,9.0,30.14,NW,323,4.6,4.6,49,0.00,CLR,,0.00,WeatherDisplay:10.37,2013-03-21 21:45:00,
2013-03-21 16:51:00,25.9,9.3,30.14,NNW,336,3.5,3.5,49,0.00,CLR,,0.00,WeatherDisplay:10.37,2013-03-21 21:51:00,
2013-03-21 16:56:00,25.9,9.3,30.14,NNW,337,0.0,0.0,49,0.00,CLR,,0.00,WeatherDisplay:10.37,2013-03-21 21:56:00,
2013-03-21 17:01:00,26.2,9.2,30.14,NNW,337,0.0,0.1,48,0.00,CLR,,0.00,WeatherDisplay:10.37,2013-03-21 22:01:00,
2013-03-21 17:06:00,26.0,9.4,30.14,NW,323,3.5,3.5,49,0.00,CLR,,0.00,WeatherDisplay:10.37,2013-03-21 22:06:00,
2013-03-21 17:11:00,25.7,8.7,30.14,NW,325,3.5,3.5,48,0.00,CLR,,0.00,WeatherDisplay:10.37,2013-03-21 22:11:00,
2013-03-21 17:16:00,25.6,8.6,30.14,NW,326,3.5,3.5,48,0.00,CLR,,0.00,WeatherDisplay:10.37,2013-03-21 22:16:00,
2013-03-21 17:22:00,26.0,9.4,30.13,NW,318,5.8,5.8,49,0.00,CLR,,0.00,WeatherDisplay:10.37,2013-03-21 22:22:00,
2013-03-21 17:27:00,25.8,8.8,30.13,NW,319,2.3,2.3,48,0.00,CLR,,0.00,WeatherDisplay:10.37,2013-03-21 22:27:00,
2013-03-21 17:32:00,26.1,9.5,30.13,NNW,331,3.5,3.5,49,0.00,CLR,,0.00,WeatherDisplay:10.37,2013-03-21 22:32:00,
2013-03-21 17:37:00,25.8,8.8,30.13,NW,313,5.8,5.8,48,0.00,CLR,,0.00,WeatherDisplay:10.37,2013-03-21 22:37:00,
2013-03-21 17:42:00,25.7,9.2,30.13,NW,314,2.3,2.3,49,0.00,CLR,,0.00,WeatherDisplay:10.37,2013-03-21 22:42:00,
2013-03-21 17:47:00,26.0,9.9,30.13,North,350,3.5,3.5,50,0.00,CLR,,0.00,WeatherDisplay:10.37,2013-03-21 22:47:00,
2013-03-21 17:52:00,26.2,9.2,30.13,WNW,295,3.5,3.5,48,0.00,CLR,,0.00,WeatherDisplay:10.37,2013-03-21 22:52:00,
2013-03-21 17:57:00,26.1,9.1,30.13,NNW,330,4.6,4.6,48,0.00,CLR,,0.00,WeatherDisplay:10.37,2013-03-21 22:57:00,
2013-03-21 18:02:00,25.6,8.6,30.13,NNW,329,3.5,3.5,48,0.00,CLR,,0.00,WeatherDisplay:10.37,2013-03-21 23:02:00,
2013-03-21 18:07:00,25.6,8.6,30.13,NW,320,3.5,3.5,48,0.00,CLR,,0.00,WeatherDisplay:10.37,2013-03-21 23:07:00,
2013-03-21 18:12:00,25.6,9.1,30.13,NW,304,2.3,2.3,49,0.00,CLR,,0.00,WeatherDisplay:10.37,2013-03-21 23:12:00,
2013-03-21 18:17:00,25.6,9.1,30.13,NW,304,2.3,2.3,49,0.00,CLR,,0.00,WeatherDisplay:10.37,2013-03-21 23:17:00,
2013-03-21 18:22:00,25.8,9.2,30.13,NW,304,3.5,3.5,49,0.00,CLR,,0.00,WeatherDisplay:10.37,2013-03-21 23:22:00,
2013-03-21 18:27:00,25.8,8.8,30.13,WNW,303,3.5,3.5,48,0.00,CLR,,0.00,WeatherDisplay:10.37,2013-03-21 23:27:00,
2013-03-21 18:32:00,25.6,9.1,30.13,NW,304,1.2,0.0,49,0.00,CLR,,0.00,WeatherDisplay:10.37,2013-03-21 23:32:00,
2013-03-21 18:37:00,25.5,9.0,30.13,NW,304,1.0,1.0,49,0.00,CLR,,0.00,WeatherDisplay:10.37,2013-03-21 23:37:00,
2013-03-21 18:42:00,25.6,9.1,30.13,NW,304,0.0,0.0,49,0.00,CLR,,0.00,WeatherDisplay:10.37,2013-03-21 23:42:00,
2013-03-21 18:47:00,25.4,8.4,30.13,NW,304,2.3,2.3,48,0.00,CLR,,0.00,WeatherDisplay:10.37,2013-03-21 23:47:00,
2013-03-21 18:52:00,25.2,8.7,30.13,NW,304,3.5,3.5,49,0.00,CLR,,0.00,WeatherDisplay:10.37,2013-03-21 23:52:00,
2013-03-21 18:57:00,25.1,9.0,30.13,NW,304,2.3,2.3,50,0.00,CLR,,0.00,WeatherDisplay:10.37,2013-03-21 23:57:00,
2013-03-21 19:03:00,24.9,8.9,30.13,NW,304,0.0,0.0,50,0.00,CLR,,0.00,WeatherDisplay:10.37,2013-03-22 00:03:00,
2013-03-21 19:08:00,24.7,8.7,30.13,NW,304,3.5,3.5,50,0.00,CLR,,0.00,WeatherDisplay:10.37,2013-03-22 00:08:00,
2013-03-21 19:13:00,24.4,8.8,30.14,NW,304,2.3,2.3,51,0.00,CLR,,0.00,WeatherDisplay:10.37,2013-03-22 00:13:00,
2013-03-21 19:18:00,24.2,8.7,30.14,NW,304,2.3,2.3,51,0.00,CLR,,0.00,WeatherDisplay:10.37,2013-03-22 00:18:00,
2013-03-21 19:23:00,23.8,8.7,30.14,NW,304,0.0,0.0,52,0.00,CLR,,0.00,WeatherDisplay:10.37,2013-03-22 00:23:00,
2013-03-21 19:28:00,23.5,8.9,30.14,NW,304,2.3,2.3,53,0.00,CLR,,0.00,WeatherDisplay:10.37,2013-03-22 00:28:00,
2013-03-21 19:33:00,23.1,8.9,30.14,NW,304,0.0,0.0,54,0.00,CLR,,0.00,WeatherDisplay:10.37,2013-03-22 00:33:00,
2013-03-21 19:38:00,22.8,8.6,30.14,NW,304,0.0,0.0,54,0.00,CLR,,0.00,WeatherDisplay:10.37,2013-03-22 00:38:00,
2013-03-21 19:43:00,22.6,8.4,30.14,WNW,303,1.2,1.2,54,0.00,CLR,,0.00,WeatherDisplay:10.37,2013-03-22 00:43:00,
2013-03-21 19:48:00,22.4,8.7,30.14,NW,304,2.3,2.3,55,0.00,CLR,,0.00,WeatherDisplay:10.37,2013-03-22 00:48:00,
2013-03-21 19:53:00,22.2,8.9,30.14,NW,304,0.0,0.0,56,0.00,CLR,,0.00,WeatherDisplay:10.37,2013-03-22 00:53:00,
2013-03-21 19:58:00,22.0,8.7,30.14,NW,304,0.0,0.0,56,0.00,CLR,,0.00,WeatherDisplay:10.37,2013-03-22 00:58:00,
2013-03-21 20:03:00,21.9,8.6,30.14,NW,304,0.0,0.0,56,0.00,CLR,,0.00,WeatherDisplay:10.37,2013-03-22 01:03:00,
2013-03-21 20:08:00,21.7,8.8,30.14,NW,304,0.0,0.0,57,0.00,CLR,,0.00,WeatherDisplay:10.37,2013-03-22 01:08:00,
2013-03-21 20:13:00,21.5,8.6,30.15,NW,304,0.0,0.0,57,0.00,CLR,,0.00,WeatherDisplay:10.37,2013-03-22 01:13:00,
2013-03-21 20:18:00,21.3,8.8,30.15,NW,304,0.0,0.0,58,0.00,CLR,,0.00,WeatherDisplay:10.37,2013-03-22 01:18:00,
2013-03-21 20:23:00,21.2,8.7,30.15,NW,304,0.0,0.0,58,0.00,CLR,,0.00,WeatherDisplay:10.37,2013-03-22 01:23:00,
2013-03-21 20:28:00,21.1,8.6,30.15,NW,304,0.0,0.0,58,0.00,CLR,,0.00,WeatherDisplay:10.37,2013-03-22 01:28:00,
2013-03-21 20:33:00,20.9,8.4,30.15,NW,304,1.2,1.2,58,0.00,CLR,,0.00,WeatherDisplay:10.37,2013-03-22 01:33:00,
2013-03-21 20:38:00,20.7,8.2,30.15,NW,304,0.0,0.0,58,0.00,CLR,,0.00,WeatherDisplay:10.37,2013-03-22 01:38:00,
2013-03-21 20:43:00,20.6,8.1,30.15,NW,304,0.0,0.0,58,0.00,CLR,,0.00,WeatherDisplay:10.37,2013-03-22 01:43:00,
2013-03-21 20:48:00,20.4,8.3,30.15,NW,304,0.0,0.0,59,0.00,CLR,,0.00,WeatherDisplay:10.37,2013-03-22 01:48:00,
2013-03-21 20:53:00,20.3,8.2,30.15,WNW,303,0.0,0.0,59,0.00,CLR,,0.00,WeatherDisplay:10.37,2013-03-22 01:53:00,
2013-03-21 20:58:00,20.2,8.1,30.15,NW,304,0.0,0.0,59,0.00,CLR,,0.00,WeatherDisplay:10.37,2013-03-22 01:58:00,
2013-03-21 21:03:00,20.0,8.3,30.15,NW,304,0.0,0.0,60,0.00,CLR,,0.00,WeatherDisplay:10.37,2013-03-22 02:03:00,
2013-03-21 21:08:00,19.7,8.0,30.15,NW,304,0.0,0.0,60,0.00,CLR,,0.00,WeatherDisplay:10.37,2013-03-22 02:08:00,
2013-03-21 21:13:00,19.7,8.4,30.15,NW,304,0.0,0.0,61,0.00,CLR,,0.00,WeatherDisplay:10.37,2013-03-22 02:13:00,
2013-03-21 21:18:00,19.6,8.3,30.15,NW,304,0.0,0.0,61,0.00,CLR,,0.00,WeatherDisplay:10.37,2013-03-22 02:18:00,
2013-03-21 21:23:00,19.4,8.1,30.15,NW,304,0.0,0.0,61,0.00,CLR,,0.00,WeatherDisplay:10.37,2013-03-22 02:23:00,
2013-03-21 21:28:00,19.3,8.0,30.15,NW,304,0.0,0.0,61,0.00,CLR,,0.00,WeatherDisplay:10.37,2013-03-22 02:28:00,
2013-03-21 21:33:00,19.1,7.8,30.15,NW,304,0.0,0.0,61,0.00,CLR,,0.00,WeatherDisplay:10.37,2013-03-22 02:33:00,
2013-03-21 21:38:00,18.8,7.9,30.15,NW,304,0.0,0.0,62,0.00,CLR,,0.00,WeatherDisplay:10.37,2013-03-22 02:38:00,
2013-03-21 21:43:00,18.6,7.7,30.15,NW,304,0.0,0.0,62,0.00,CLR,,0.00,WeatherDisplay:10.37,2013-03-22 02:43:00,
2013-03-21 21:48:00,18.4,7.9,30.16,NW,304,0.0,0.0,63,0.00,CLR,,0.00,WeatherDisplay:10.37,2013-03-22 02:48:00,
2013-03-21 21:53:00,18.3,8.1,30.16,NW,304,0.0,0.0,64,0.00,CLR,,0.00,WeatherDisplay:10.37,2013-03-22 02:53:00,
2013-03-21 21:58:00,18.2,8.1,30.16,NW,304,0.0,0.0,64,0.00,CLR,,0.00,WeatherDisplay:10.37,2013-03-22 02:58:00,
2013-03-21 22:03:00,18.1,8.0,30.16,NW,304,0.0,0.0,64,0.00,CLR,,0.00,WeatherDisplay:10.37,2013-03-22 03:03:00,
2013-03-21 22:08:00,18.0,7.9,30.16,NW,304,0.0,0.0,64,0.00,CLR,,0.00,WeatherDisplay:10.37,2013-03-22 03:08:00,
2013-03-21 22:13:00,17.7,7.9,30.17,NW,304,0.0,0.0,65,0.00,CLR,,0.00,WeatherDisplay:10.37,2013-03-22 03:13:00,
2013-03-21 22:18:00,17.4,7.6,30.17,NW,304,0.0,0.0,65,0.00,CLR,,0.00,WeatherDisplay:10.37,2013-03-22 03:18:00,
2013-03-21 22:24:00,17.2,7.8,30.17,NW,304,0.0,0.0,66,0.00,CLR,,0.00,WeatherDisplay:10.37,2013-03-22 03:24:00,
2013-03-21 22:29:00,17.1,7.7,30.17,WNW,303,0.0,0.0,66,0.00,CLR,,0.00,WeatherDisplay:10.37,2013-03-22 03:29:00,
2013-03-21 22:34:00,17.2,7.8,30.17,NW,304,0.0,0.0,66,0.00,CLR,,0.00,WeatherDisplay:10.37,2013-03-22 03:34:00,
2013-03-21 22:39:00,17.3,7.9,30.17,NW,304,0.0,0.0,66,0.00,CLR,,0.00,WeatherDisplay:10.37,2013-03-22 03:39:00,
2013-03-21 22:44:00,17.3,7.9,30.17,NW,304,0.0,0.0,66,0.00,CLR,,0.00,WeatherDisplay:10.37,2013-03-22 03:44:00,
2013-03-21 22:49:00,17.3,7.5,30.17,NW,304,0.0,0.0,65,0.00,CLR,,0.00,WeatherDisplay:10.37,2013-03-22 03:49:00,
2013-03-21 22:54:00,17.1,7.3,30.17,NW,304,0.0,0.0,65,0.00,CLR,,0.00,WeatherDisplay:10.37,2013-03-22 03:54:00,
2013-03-21 22:59:00,16.9,7.5,30.17,WNW,303,0.0,0.0,66,0.00,CLR,,0.00,WeatherDisplay:10.37,2013-03-22 03:59:00,
2013-03-21 23:00:00,16.9,7.5,30.17,WNW,303,0.0,0.0,66,0.00,CLR,,0.00,WeatherDisplay:10.37,2013-03-22 04:00:00,
2013-03-21 23:03:00,16.8,7.4,30.18,NW,304,0.0,0.0,66,0.00,CLR,,0.00,WeatherDisplay:10.37,2013-03-22 04:03:00,
2013-03-21 23:08:00,16.3,6.9,30.18,NW,304,0.0,0.0,66,0.00,CLR,,0.00,WeatherDisplay:10.37,2013-03-22 04:08:00,
2013-03-21 23:13:00,15.9,6.9,30.17,NW,304,0.0,0.0,67,0.00,CLR,,0.00,WeatherDisplay:10.37,2013-03-22 04:13:00,
2013-03-21 23:18:00,15.6,6.6,30.17,NW,304,0.0,0.0,67,0.00,CLR,,0.00,WeatherDisplay:10.37,2013-03-22 04:18:00,
2013-03-21 23:23:00,15.4,6.7,30.17,NW,304,0.0,0.0,68,0.00,CLR,,0.00,WeatherDisplay:10.37,2013-03-22 04:23:00,
2013-03-21 23:28:00,15.2,6.5,30.17,NW,304,0.0,0.0,68,0.00,CLR,,0.00,WeatherDisplay:10.37,2013-03-22 04:28:00,
2013-03-21 23:33:00,15.1,6.8,30.17,NW,304,0.0,0.0,69,0.00,CLR,,0.00,WeatherDisplay:10.37,2013-03-22 04:33:00,
2013-03-21 23:38:00,15.2,6.8,30.17,WNW,303,0.0,0.0,69,0.00,CLR,,0.00,WeatherDisplay:10.37,2013-03-22 04:38:00,
2013-03-21 23:43:00,15.7,7.3,30.17,NW,304,0.0,0.0,69,0.00,CLR,,0.00,WeatherDisplay:10.37,2013-03-22 04:43:00,
2013-03-21 23:48:00,15.5,6.8,30.18,NW,304,0.0,0.0,68,0.00,CLR,,0.00,WeatherDisplay:10.37,2013-03-22 04:48:00,
2013-03-21 23:53:00,14.9,6.6,30.18,NW,304,0.0,0.0,69,0.00,CLR,,0.00,WeatherDisplay:10.37,2013-03-22 04:53:00,
2013-03-21 23:58:00,14.8,6.8,30.17,NW,304,0.0,0.0,70,0.00,CLR,,0.00,WeatherDisplay:10.37,2013-03-22 04:58:00,